METAR Data

Data at: 2330 UTC 26 Feb 2020

METAR for:KPVD (Providence/Green Mem, RI, US)
Text:KPVD 262317Z 06009KT 10SM BKN011 OVC017 08/05 A2993 RMK AO2 T00780050
Temperature: 7.8°C ( 46°F)
Dewpoint: 5.0°C ( 41°F) [RH = 82%]
Pressure (altimeter):29.93 inches Hg (1013.6 mb)
Winds:from the ENE (60 degrees) at 10 MPH (9 knots; 4.6 m/s)
Visibility:10 or more sm (16+ km)
Ceiling:1100 feet AGL
Clouds: broken clouds at 1100 feet AGL, overcast cloud deck at 1700 feet AGL